Impacts METAR Board INFO
IDs:

KFLL - Ft Lauderdale-Hollyw, FL, US

Updated at: 1924 UTC 19 Jan 2018
Potential Impact None Slight Moderate High
Time19/07Z 19/08Z 19/09Z 19/10Z 19/11Z 19/12Z 19/13Z 19/14Z 19/15Z 19/16Z 19/17Z 19/18Z 19/19Z
VIS10 10 10 10 10 10 10 10 10 10 10 10 10
CIG250 250 250 250 250 250 250 250 250 250 40 250 50
CoverBKNBKNBKNBKNBKNBKNBKNBKNBKNBKNBKNBKNBKN
FltCatVFRVFRVFRVFRVFRVFRVFRVFRVFRVFRVFRVFRVFR
WX--------------------------
WDir320350320340340320350350350330706080
WSpd6 8 5 6 5 5 6 6 6 7 7 9 11
WGst-- -- -- -- -- -- -- -- -- -- -- -- 16
Raw hourly METARs
KFLL 190653Z 32006KT 10SM BKN250 09/08 A3025 RMK AO2 SLP244 T00890083
KFLL 190753Z 35008KT 10SM BKN250 09/08 A3024 RMK AO2 SLP238 T00890083
KFLL 190853Z 32005KT 10SM BKN250 09/08 A3024 RMK AO2 SLP239 T00890083 55011
KFLL 190953Z 34006KT 10SM BKN250 09/09 A3024 RMK AO2 SLP238 T00890089
KFLL 191053Z 34005KT 10SM BKN250 09/09 A3024 RMK AO2 SLP239 T00890089
KFLL 191153Z 32005KT 10SM FEW033 BKN250 09/09 A3025 RMK AO2 SLP244 T00890089 10094 20089 53004
KFLL 191253Z 35006KT 10SM FEW040 FEW180 BKN250 09/09 A3027 RMK AO2 SLP248 T00940094
KFLL 191353Z 35006KT 10SM FEW040 FEW180 BKN250 12/11 A3029 RMK AO2 SLP255 T01220106
KFLL 191453Z 35006KT 10SM FEW040 SCT180 BKN250 14/12 A3030 RMK AO2 SLP259 T01440117 53016
KFLL 191553Z 33007KT 10SM FEW040 FEW180 BKN250 17/13 A3029 RMK AO2 SLP258 T01720133
KFLL 191653Z 07007KT 10SM BKN040 BKN250 19/14 A3028 RMK AO2 SLP253 T01890139
KFLL 191753Z 06009KT 10SM SCT050 SCT150 BKN250 21/12 A3025 RMK AO2 SLP243 T02060117 10206 20083 58016
KFLL 191853Z 08011G16KT 10SM BKN050 BKN150 BKN250 20/12 A3022 RMK AO2 SLP234 T02000122